Time;durP1;ratioP1;P1;durP2;ratioP2;P2;SDS_P1;SDS_P2;PMS_P1;PMS_P2;Temp;Humidity;BMP_temperature;BMP_pressure;BME280_temperature;BME280_humidity;BME280_pressure;Samples;Min_cycle;Max_cycle;Signal;HPM_P1;HPM_P2
2021/12/18 00:01:40;;;;;;;5.18;1.90;;;29.30;96.60;;;;;;4969497;28;20019;-72
2021/12/18 00:04:08;;;;;;;8.50;2.45;;;29.30;96.60;;;;;;4970675;28;20023;-73
2021/12/18 00:06:35;;;;;;;6.53;2.10;;;29.30;96.70;;;;;;4971121;28;20455;-73
2021/12/18 00:09:04;;;;;;;5.88;2.15;;;29.30;96.70;;;;;;4971361;28;20038;-75
2021/12/18 00:11:31;;;;;;;4.78;1.98;;;29.20;96.80;;;;;;4971469;28;20027;-70
2021/12/18 00:13:58;;;;;;;6.35;2.92;;;29.30;97.00;;;;;;4971476;28;20029;-74
2021/12/18 00:16:26;;;;;;;7.80;2.63;;;29.30;96.90;;;;;;4973318;28;20023;-75
2021/12/18 00:18:55;;;;;;;7.22;2.08;;;29.50;97.20;;;;;;4967755;28;20364;-73
2021/12/18 00:21:24;;;;;;;9.98;2.20;;;29.70;96.20;;;;;;4969450;28;20023;-74
2021/12/18 00:23:52;;;;;;;4.90;1.63;;;29.90;96.10;;;;;;4973173;28;20403;-75
2021/12/18 00:26:20;;;;;;;8.23;2.65;;;29.80;95.80;;;;;;4971315;28;20034;-74
2021/12/18 00:28:48;;;;;;;4.18;1.60;;;29.90;95.90;;;;;;4963915;28;20479;-71
2021/12/18 00:31:19;;;;;;;4.50;1.83;;;29.80;95.80;;;;;;4967031;28;20114;-75
2021/12/18 00:33:47;;;;;;;5.90;2.20;;;30.00;96.10;;;;;;4966187;28;20035;-69
2021/12/18 00:36:14;;;;;;;8.13;2.22;;;30.10;95.60;;;;;;4968196;28;20050;-74
2021/12/18 00:38:42;;;;;;;6.00;2.33;;;30.20;95.40;;;;;;4971425;28;20042;-74
2021/12/18 00:41:15;;;;;;;7.43;2.35;;;30.40;95.00;;;;;;4973022;28;20034;-78
2021/12/18 00:44:02;;;;;;;10.20;2.20;;;30.60;94.40;;;;;;4976406;28;20037;-73
2021/12/18 00:46:36;;;;;;;8.98;2.40;;;30.70;94.20;;;;;;4976091;28;20026;-72
2021/12/18 00:49:06;;;;;;;6.78;2.35;;;30.90;94.10;;;;;;4974612;28;20026;-74
2021/12/18 00:51:35;;;;;;;6.63;2.60;;;31.00;94.20;;;;;;4975970;28;20022;-75
2021/12/18 00:54:03;;;;;;;7.50;2.03;;;31.20;93.30;;;;;;4976184;28;20364;-76
2021/12/18 00:56:31;;;;;;;4.93;2.00;;;31.40;93.30;;;;;;4976834;28;20042;-82
2021/12/18 00:58:59;;;;;;;10.45;2.70;;;31.70;92.50;;;;;;4975036;28;20034;-87
2021/12/18 01:01:30;;;;;;;7.53;2.33;;;31.70;92.00;;;;;;4957021;28;20031;-83
2021/12/18 01:03:58;;;;;;;8.68;2.28;;;31.90;92.10;;;;;;4970675;28;20073;-79
2021/12/18 01:06:32;;;;;;;8.43;2.40;;;32.20;92.30;;;;;;4971945;28;20026;-82
2021/12/18 01:08:59;;;;;;;8.55;2.50;;;32.40;91.60;;;;;;4973957;28;20407;-80
2021/12/18 01:11:46;;;;;;;9.25;2.00;;;32.70;91.00;;;;;;4976594;28;20037;-80
2021/12/18 01:25:09;;;;;;;7.32;2.17;;;33.20;89.60;;;;;;4969543;28;20399;-73
2021/12/18 01:27:36;;;;;;;10.38;3.35;;;33.30;88.60;;;;;;4963840;28;20034;-73
2021/12/18 01:30:06;;;;;;;10.18;3.58;;;33.30;89.90;;;;;;4963729;28;20023;-75
2021/12/18 01:32:34;;;;;;;12.70;3.75;;;33.10;90.00;;;;;;4966096;28;20062;-73
2021/12/18 01:35:02;;;;;;;12.13;3.35;;;32.80;90.40;;;;;;4963846;28;20046;-73
2021/12/18 01:37:29;;;;;;;9.68;3.50;;;32.70;91.10;;;;;;4964743;28;20046;-73
2021/12/18 01:39:57;;;;;;;10.20;2.92;;;32.60;90.80;;;;;;4965581;28;20700;-76
2021/12/18 01:53:00;;;;;;;16.88;4.68;;;33.20;90.80;;;;;;4973991;28;20049;-72
2021/12/18 01:55:34;;;;;;;12.50;3.92;;;33.30;90.70;;;;;;4973059;28;20029;-73
2021/12/18 01:58:02;;;;;;;15.27;5.00;;;33.30;90.70;;;;;;4969104;28;20027;-71
2021/12/18 02:00:35;;;;;;;14.52;5.65;;;33.30;90.40;;;;;;4968770;28;20023;-72
2021/12/18 02:03:02;;;;;;;13.30;4.57;;;33.30;90.80;;;;;;4969044;28;20033;-73
2021/12/18 02:05:30;;;;;;;17.13;4.55;;;33.40;90.30;;;;;;4969322;28;20027;-70
2021/12/18 02:07:57;;;;;;;13.85;4.15;;;33.30;90.30;;;;;;4969134;28;20039;-70
2021/12/18 02:10:29;;;;;;;17.15;5.18;;;33.30;90.60;;;;;;4968437;28;20453;-71
2021/12/18 02:21:15;;;;;;;17.92;4.28;;;33.70;90.80;;;;;;4972900;28;20554;-74
2021/12/18 02:23:44;;;;;;;15.18;5.22;;;33.80;90.30;;;;;;4974187;28;20054;-78
2021/12/18 02:26:12;;;;;;;16.38;5.40;;;33.80;90.00;;;;;;4970738;28;20029;-82
2021/12/18 02:28:46;;;;;;;13.27;4.05;;;33.70;89.80;;;;;;4969867;28;20037;-83
2021/12/18 02:31:15;;;;;;;17.23;5.28;;;33.40;90.00;;;;;;4970843;28;20030;-82
2021/12/18 02:33:45;;;;;;;15.93;5.32;;;33.10;90.70;;;;;;4969716;28;20077;-76
2021/12/18 02:36:21;;;;;;;14.43;5.07;;;32.90;90.90;;;;;;4965391;28;20035;-77
2021/12/18 02:41:44;;;;;;;18.83;5.45;;;33.00;90.70;;;;;;4968664;28;20159;-77
2021/12/18 02:44:13;;;;;;;13.27;4.22;;;33.00;91.80;;;;;;4961931;28;20030;-76
2021/12/18 02:46:42;;;;;;;16.27;4.57;;;33.30;91.00;;;;;;4963234;28;20023;-74
2021/12/18 02:49:11;;;;;;;14.20;4.85;;;33.70;91.00;;;;;;4964083;28;20023;-76
2021/12/18 02:51:39;;;;;;;14.43;4.78;;;34.20;90.50;;;;;;4964565;28;20511;-76
2021/12/18 02:54:07;;;;;;;10.68;4.22;;;34.60;89.40;;;;;;4965487;28;20118;-78
2021/12/18 02:56:35;;;;;;;15.25;4.57;;;35.00;88.20;;;;;;4964551;28;20122;-78
2021/12/18 02:59:07;;;;;;;17.42;4.63;;;35.50;86.30;;;;;;4963674;28;20153;-76
2021/12/18 03:01:36;;;;;;;16.30;4.10;;;35.40;85.30;;;;;;4964174;28;20061;-75
2021/12/18 03:04:14;;;;;;;12.48;3.97;;;35.00;85.60;;;;;;4963879;28;20034;-75
2021/12/18 03:06:46;;;;;;;20.33;5.43;;;34.10;87.00;;;;;;4963149;28;20058;-76
2021/12/18 03:25:43;;;;;;;12.27;3.83;;;34.70;87.70;;;;;;4968146;28;20664;-78
2021/12/18 03:28:13;;;;;;;15.65;3.80;;;35.40;84.90;;;;;;4968732;28;20031;-77
2021/12/18 03:30:40;;;;;;;13.20;3.70;;;35.80;83.50;;;;;;4970667;28;20057;-78
2021/12/18 03:33:11;;;;;;;12.50;4.72;;;35.90;82.50;;;;;;4974358;28;20025;-80
2021/12/18 03:35:38;;;;;;;12.15;4.03;;;36.40;80.40;;;;;;4972679;28;20467;-78
2021/12/18 03:38:06;;;;;;;12.20;4.15;;;36.70;80.30;;;;;;4973389;28;20073;-76
2021/12/18 03:40:33;;;;;;;15.63;4.40;;;36.90;79.90;;;;;;4973001;28;20023;-75
2021/12/18 03:43:00;;;;;;;12.13;3.55;;;37.00;78.40;;;;;;4972742;28;20030;-75
2021/12/18 03:45:30;;;;;;;15.30;3.75;;;37.30;78.00;;;;;;4964745;28;20026;-75
2021/12/18 03:47:57;;;;;;;14.52;4.13;;;37.40;76.90;;;;;;4955101;28;20464;-76
2021/12/18 03:50:25;;;;;;;15.40;4.00;;;37.50;77.50;;;;;;4972506;28;20027;-77
2021/12/18 03:52:52;;;;;;;10.60;3.38;;;37.80;75.70;;;;;;4973007;28;20026;-76
2021/12/18 03:55:19;;;;;;;16.58;3.97;;;37.40;75.40;;;;;;4972085;28;20027;-75
2021/12/18 03:57:47;;;;;;;14.10;4.03;;;36.40;77.60;;;;;;4973669;28;20038;-75
2021/12/18 04:00:16;;;;;;;12.95;3.65;;;35.70;79.20;;;;;;4968796;28;20031;-78
2021/12/18 04:02:44;;;;;;;14.43;3.92;;;35.20;80.40;;;;;;4960099;28;20030;-76
2021/12/18 04:05:12;;;;;;;13.82;4.00;;;34.70;81.90;;;;;;4952936;28;20121;-77
2021/12/18 04:07:43;;;;;;;12.30;3.97;;;34.30;83.40;;;;;;4954297;28;20046;-78
2021/12/18 04:10:13;;;;;;;12.85;3.83;;;34.00;84.50;;;;;;4962162;28;20480;-78
2021/12/18 04:12:40;;;;;;;13.40;3.60;;;34.10;84.70;;;;;;4970018;28;20041;-78
2021/12/18 04:15:08;;;;;;;16.65;4.80;;;34.30;84.00;;;;;;4970925;28;20029;-77
2021/12/18 04:17:36;;;;;;;15.35;4.57;;;34.40;83.40;;;;;;4963392;28;20035;-78
2021/12/18 04:20:04;;;;;;;15.68;4.30;;;34.00;84.60;;;;;;4951733;28;20496;-80
2021/12/18 04:22:32;;;;;;;14.52;5.13;;;33.70;85.50;;;;;;4952598;28;20131;-76
2021/12/18 04:25:02;;;;;;;13.70;4.10;;;33.10;86.60;;;;;;4967001;28;20038;-79
2021/12/18 04:27:30;;;;;;;12.35;4.68;;;32.90;88.20;;;;;;4966916;28;20030;-78
2021/12/18 04:29:57;;;;;;;15.18;4.20;;;32.80;88.60;;;;;;4965811;28;20023;-76
2021/12/18 04:32:25;;;;;;;15.27;4.13;;;32.80;89.70;;;;;;4967423;28;20034;-79
2021/12/18 04:34:53;;;;;;;17.77;3.83;;;33.10;88.30;;;;;;4967998;28;20505;-78
2021/12/18 04:37:20;;;;;;;15.23;4.72;;;33.40;88.40;;;;;;4965459;28;20137;-78
2021/12/18 04:39:48;;;;;;;16.65;4.13;;;33.80;86.30;;;;;;4967040;28;20027;-78
2021/12/18 04:42:15;;;;;;;15.55;5.70;;;33.70;86.50;;;;;;4966622;28;20116;-78
2021/12/18 04:44:42;;;;;;;16.17;4.70;;;34.20;85.90;;;;;;4966899;28;20027;-79
2021/12/18 04:47:10;;;;;;;21.55;5.82;;;34.70;85.00;;;;;;4967001;28;20030;-76
2021/12/18 04:49:37;;;;;;;16.80;3.97;;;35.30;83.10;;;;;;4966961;28;20035;-76
2021/12/18 04:52:05;;;;;;;15.88;5.20;;;35.70;81.00;;;;;;4965745;28;20483;-77
2021/12/18 04:54:33;;;;;;;16.40;4.60;;;36.00;80.00;;;;;;4966416;28;20411;-75
2021/12/18 04:57:00;;;;;;;13.35;3.80;;;36.40;80.10;;;;;;4967490;28;20038;-75
2021/12/18 04:59:29;;;;;;;17.45;4.80;;;36.60;79.00;;;;;;4967496;28;20185;-75
2021/12/18 05:01:56;;;;;;;13.32;4.40;;;36.80;77.40;;;;;;4967198;28;20057;-78
2021/12/18 05:04:23;;;;;;;15.43;4.88;;;36.70;77.70;;;;;;4968299;28;20019;-75
2021/12/18 05:06:52;;;;;;;15.10;4.47;;;36.60;77.90;;;;;;4970401;28;20081;-76
2021/12/18 05:09:20;;;;;;;17.02;4.40;;;36.20;78.60;;;;;;4970250;28;20038;-78
2021/12/18 05:11:48;;;;;;;15.75;5.15;;;35.80;79.50;;;;;;4970293;28;20042;-78
2021/12/18 05:14:16;;;;;;;15.27;4.63;;;35.70;80.30;;;;;;4970411;28;20134;-79
2021/12/18 05:16:45;;;;;;;14.43;4.07;;;35.80;79.40;;;;;;4969948;28;20022;-78
2021/12/18 05:19:12;;;;;;;18.90;5.97;;;35.50;80.60;;;;;;4969365;28;20030;-78
2021/12/18 05:21:40;;;;;;;19.50;5.50;;;35.10;81.10;;;;;;4968588;28;20142;-76
2021/12/18 05:24:07;;;;;;;15.15;4.45;;;34.50;83.00;;;;;;4968650;28;20062;-76
2021/12/18 05:26:35;;;;;;;21.15;4.97;;;34.30;83.90;;;;;;4969907;28;20023;-77
2021/12/18 05:29:03;;;;;;;14.80;4.40;;;34.00;84.30;;;;;;4969605;28;20050;-78
2021/12/18 05:31:31;;;;;;;16.42;5.03;;;33.90;85.00;;;;;;4968621;28;20045;-77
2021/12/18 05:34:00;;;;;;;15.18;4.93;;;34.10;84.40;;;;;;4969688;28;20031;-77
2021/12/18 05:36:40;;;;;;;17.52;4.65;;;34.60;84.00;;;;;;4969759;28;20034;-78
2021/12/18 05:39:11;;;;;;;15.80;5.07;;;35.10;81.80;;;;;;4970307;28;20030;-79
2021/12/18 05:41:39;;;;;;;17.02;4.78;;;35.20;82.00;;;;;;4970152;28;20039;-72
2021/12/18 05:44:06;;;;;;;15.82;4.53;;;35.50;81.30;;;;;;4969812;28;20734;-73
2021/12/18 05:46:34;;;;;;;22.67;5.75;;;35.60;80.70;;;;;;4969998;28;20014;-73
2021/12/18 05:49:03;;;;;;;13.70;4.35;;;35.40;81.10;;;;;;4970209;28;20023;-72
2021/12/18 05:51:32;;;;;;;13.35;4.65;;;34.70;82.40;;;;;;4969806;28;20027;-72
2021/12/18 05:54:00;;;;;;;23.05;5.47;;;33.90;84.50;;;;;;4969139;28;20399;-72
2021/12/18 05:56:27;;;;;;;17.83;5.72;;;33.40;85.90;;;;;;4969229;28;20026;-71
2021/12/18 05:58:55;;;;;;;15.50;4.57;;;33.20;86.90;;;;;;4969531;28;20087;-73
2021/12/18 06:01:22;;;;;;;19.05;5.15;;;32.90;87.40;;;;;;4968757;28;20478;-72
2021/12/18 06:03:50;;;;;;;17.88;5.30;;;32.50;89.00;;;;;;4968746;28;20718;-72
2021/12/18 06:06:17;;;;;;;21.98;5.28;;;32.30;90.00;;;;;;4969086;28;20535;-73
2021/12/18 06:08:44;;;;;;;16.27;5.13;;;32.40;90.00;;;;;;4969039;28;20038;-72
2021/12/18 06:11:15;;;;;;;19.15;5.40;;;32.50;90.00;;;;;;4969255;28;20044;-72
2021/12/18 06:13:47;;;;;;;18.40;4.60;;;32.30;90.20;;;;;;4968223;28;20169;-72
2021/12/18 06:16:15;;;;;;;22.80;6.85;;;32.00;90.60;;;;;;4967076;28;20031;-72
2021/12/18 06:18:44;;;;;;;17.40;4.82;;;31.90;90.80;;;;;;4969478;28;20042;-72
2021/12/18 06:21:13;;;;;;;17.67;5.15;;;31.80;91.00;;;;;;4969434;28;20093;-74
2021/12/18 06:23:42;;;;;;;22.33;4.65;;;31.80;91.50;;;;;;4968688;28;20129;-73
2021/12/18 06:26:10;;;;;;;18.92;5.93;;;31.90;91.20;;;;;;4968301;28;20018;-74
2021/12/18 06:28:38;;;;;;;17.63;5.30;;;32.00;91.00;;;;;;4969384;28;20026;-73
2021/12/18 06:31:05;;;;;;;16.50;5.40;;;32.00;91.00;;;;;;4969271;28;20034;-74
2021/12/18 06:33:33;;;;;;;15.80;4.43;;;32.00;91.40;;;;;;4969325;28;20194;-74
2021/12/18 06:36:01;;;;;;;20.08;4.75;;;32.20;91.30;;;;;;4969203;28;20658;-75
2021/12/18 06:38:28;;;;;;;15.68;4.78;;;32.40;91.00;;;;;;4968831;28;20435;-74
2021/12/18 06:40:55;;;;;;;16.75;4.82;;;32.30;90.80;;;;;;4968968;28;20043;-74
2021/12/18 06:43:26;;;;;;;21.90;5.53;;;32.00;90.90;;;;;;4968258;28;20097;-74
2021/12/18 06:45:53;;;;;;;23.73;6.07;;;32.00;91.30;;;;;;4967774;28;20023;-73
2021/12/18 06:48:20;;;;;;;18.35;5.35;;;31.90;91.10;;;;;;4968692;28;20019;-76
2021/12/18 06:50:50;;;;;;;20.45;5.57;;;31.90;91.30;;;;;;4964141;28;20039;-74
2021/12/18 06:53:17;;;;;;;20.05;5.53;;;32.00;91.30;;;;;;4962764;28;20452;-75
2021/12/18 06:55:45;;;;;;;20.08;4.93;;;32.10;91.30;;;;;;4964257;28;20035;-74
2021/12/18 06:58:12;;;;;;;18.45;5.80;;;32.20;91.20;;;;;;4963395;28;20042;-74
2021/12/18 07:00:40;;;;;;;23.00;7.10;;;32.00;91.10;;;;;;4963940;28;20059;-72
2021/12/18 07:03:07;;;;;;;20.55;5.45;;;31.80;91.50;;;;;;4963259;28;20847;-73
2021/12/18 07:05:34;;;;;;;21.65;6.28;;;31.50;91.90;;;;;;4963227;28;20088;-72
2021/12/18 07:08:02;;;;;;;21.65;6.18;;;31.40;92.20;;;;;;4963132;28;20130;-75
2021/12/18 07:10:31;;;;;;;21.25;5.65;;;31.40;92.30;;;;;;4963483;28;20026;-72
2021/12/18 07:12:59;;;;;;;22.92;6.00;;;31.40;92.60;;;;;;4964106;28;20027;-73
2021/12/18 07:15:27;;;;;;;21.10;6.05;;;31.60;92.30;;;;;;4964467;28;20026;-73
2021/12/18 07:17:54;;;;;;;20.88;6.13;;;31.60;92.40;;;;;;4963241;28;20046;-73
2021/12/18 07:20:21;;;;;;;22.13;6.22;;;31.50;92.30;;;;;;4962881;28;20019;-75
2021/12/18 07:22:49;;;;;;;20.73;5.65;;;31.40;92.60;;;;;;4962019;28;20047;-72
2021/12/18 07:25:16;;;;;;;19.48;5.68;;;31.20;92.80;;;;;;4962901;28;21515;-73
2021/12/18 07:27:43;;;;;;;22.15;5.45;;;31.00;93.10;;;;;;4962805;28;20042;-73
2021/12/18 07:30:12;;;;;;;24.05;6.63;;;30.90;93.50;;;;;;4963333;28;20027;-74
2021/12/18 07:32:40;;;;;;;26.33;7.90;;;30.90;93.70;;;;;;4963129;28;20037;-73
2021/12/18 07:35:08;;;;;;;22.33;6.32;;;30.90;93.60;;;;;;4963411;28;20027;-73
2021/12/18 07:37:37;;;;;;;22.83;6.88;;;30.90;93.70;;;;;;4961582;28;20051;-73
2021/12/18 07:40:07;;;;;;;19.02;5.88;;;30.90;93.80;;;;;;4962856;28;20050;-72
2021/12/18 07:42:34;;;;;;;18.08;5.20;;;30.80;93.90;;;;;;4962944;28;20066;-74
2021/12/18 07:45:03;;;;;;;23.42;5.85;;;30.70;94.10;;;;;;4963318;28;20033;-74
2021/12/18 07:47:30;;;;;;;20.73;5.70;;;30.50;94.30;;;;;;4963022;28;20031;-74
2021/12/18 07:49:58;;;;;;;19.63;6.43;;;30.30;94.60;;;;;;4962832;28;20117;-74
2021/12/18 07:52:25;;;;;;;25.98;7.95;;;30.30;95.00;;;;;;4962257;28;20038;-73
2021/12/18 07:54:52;;;;;;;33.00;8.48;;;30.30;95.20;;;;;;4963025;28;20027;-75
2021/12/18 07:57:20;;;;;;;26.05;8.48;;;30.20;95.20;;;;;;4962926;28;20503;-72
2021/12/18 07:59:47;;;;;;;32.22;8.98;;;30.30;95.40;;;;;;4963505;28;20042;-72
2021/12/18 08:02:15;;;;;;;19.35;6.68;;;30.10;95.40;;;;;;4963444;28;20440;-73
2021/12/18 08:04:42;;;;;;;21.20;7.22;;;30.10;95.50;;;;;;4963854;28;20041;-71
2021/12/18 08:07:09;;;;;;;24.02;6.38;;;30.00;95.30;;;;;;4963160;28;20066;-73
2021/12/18 08:09:36;;;;;;;19.60;5.93;;;30.00;95.40;;;;;;4963029;28;20145;-71
2021/12/18 08:12:05;;;;;;;31.83;7.85;;;29.90;95.90;;;;;;4962542;28;20122;-74
2021/12/18 08:14:32;;;;;;;17.85;7.03;;;29.90;95.80;;;;;;4962888;28;20097;-73
2021/12/18 08:17:00;;;;;;;19.27;6.45;;;29.80;96.10;;;;;;4962440;28;20030;-73
2021/12/18 08:19:27;;;;;;;15.90;7.25;;;29.80;96.10;;;;;;4962599;28;20046;-71
2021/12/18 08:21:54;;;;;;;26.20;6.75;;;29.80;96.30;;;;;;4960403;28;20022;-74
2021/12/18 08:24:21;;;;;;;25.15;6.82;;;29.60;96.50;;;;;;4962699;28;20189;-74
2021/12/18 08:26:49;;;;;;;26.42;7.15;;;29.50;96.90;;;;;;4962303;28;20085;-72
2021/12/18 08:29:16;;;;;;;22.95;7.68;;;29.40;97.20;;;;;;4962921;28;20383;-75
2021/12/18 08:31:45;;;;;;;24.65;6.95;;;29.40;97.30;;;;;;4962440;28;20031;-73
2021/12/18 08:34:12;;;;;;;26.23;7.57;;;29.30;97.60;;;;;;4962589;28;20084;-76
2021/12/18 08:36:40;;;;;;;26.27;7.65;;;29.30;97.80;;;;;;4962939;28;20042;-75
2021/12/18 08:39:07;;;;;;;26.40;7.43;;;29.30;98.00;;;;;;4963772;28;20031;-72
2021/12/18 08:41:34;;;;;;;28.67;7.95;;;29.20;98.10;;;;;;4967063;28;20157;-75
2021/12/18 08:44:02;;;;;;;19.15;6.43;;;29.10;98.20;;;;;;4966502;28;20023;-75
2021/12/18 08:46:29;;;;;;;22.75;7.20;;;29.10;98.50;;;;;;4966932;28;20031;-74
2021/12/18 08:48:56;;;;;;;25.95;8.02;;;29.10;98.50;;;;;;4967026;28;20088;-76
2021/12/18 08:51:24;;;;;;;23.80;6.72;;;29.00;98.50;;;;;;4966518;28;20126;-73
2021/12/18 08:53:51;;;;;;;23.70;8.10;;;29.00;98.70;;;;;;4966227;28;20026;-73
2021/12/18 08:56:18;;;;;;;20.65;6.35;;;28.90;99.00;;;;;;4965862;28;20047;-73
2021/12/18 08:58:46;;;;;;;28.23;6.93;;;28.90;98.90;;;;;;4966563;28;20035;-75
2021/12/18 09:01:13;;;;;;;22.48;6.28;;;28.80;98.90;;;;;;4966154;28;20488;-73
2021/12/18 09:03:40;;;;;;;20.42;6.35;;;28.80;99.00;;;;;;4966091;28;20031;-75
2021/12/18 09:06:08;;;;;;;21.30;7.32;;;28.70;99.00;;;;;;4965712;28;20031;-73
2021/12/18 09:08:35;;;;;;;26.05;8.00;;;28.70;99.30;;;;;;4966334;28;20062;-74
2021/12/18 09:11:02;;;;;;;25.88;7.65;;;28.60;99.40;;;;;;4966019;28;20121;-74
2021/12/18 09:13:30;;;;;;;29.27;8.05;;;28.60;99.60;;;;;;4966020;28;20086;-74
2021/12/18 09:15:57;;;;;;;22.80;6.10;;;28.60;99.70;;;;;;4966242;28;20077;-73
2021/12/18 09:18:24;;;;;;;22.73;6.85;;;28.50;99.80;;;;;;4964952;28;20046;-73
2021/12/18 09:20:51;;;;;;;23.50;6.90;;;28.40;99.90;;;;;;4964004;28;20034;-71
2021/12/18 09:23:21;;;;;;;26.67;7.57;;;28.40;99.90;;;;;;4965706;28;20038;-75
2021/12/18 09:25:49;;;;;;;26.15;7.32;;;28.40;99.90;;;;;;4965589;28;20027;-74
2021/12/18 09:28:17;;;;;;;25.90;6.13;;;28.40;99.90;;;;;;4965914;28;20037;-72
2021/12/18 09:30:44;;;;;;;22.83;7.45;;;28.30;99.90;;;;;;4965536;28;20034;-73
2021/12/18 09:33:13;;;;;;;23.63;6.43;;;28.30;99.90;;;;;;4966022;28;20181;-73
2021/12/18 09:35:41;;;;;;;21.55;6.47;;;28.30;99.90;;;;;;4965820;28;20023;-73
2021/12/18 09:38:08;;;;;;;23.52;6.50;;;28.30;99.90;;;;;;4965662;28;20518;-74
2021/12/18 09:40:37;;;;;;;21.55;5.68;;;28.20;99.90;;;;;;4965718;28;20863;-74
2021/12/18 09:43:04;;;;;;;31.38;7.05;;;28.20;99.90;;;;;;4966087;28;20027;-75
2021/12/18 09:45:32;;;;;;;23.17;6.60;;;28.20;99.90;;;;;;4966496;28;20019;-75
2021/12/18 09:48:00;;;;;;;27.70;7.40;;;28.20;99.90;;;;;;4965540;28;20035;-75
2021/12/18 09:50:32;;;;;;;31.67;8.60;;;28.20;99.90;;;;;;4964850;28;20153;-74
2021/12/18 09:52:58;;;;;;;;;;;28.10;99.90;;;;;;4966097;28;20034;-74
2021/12/18 09:55:26;;;;;;;19.48;6.35;;;28.20;99.90;;;;;;4965690;28;19918;-73
2021/12/18 09:57:53;;;;;;;22.05;6.63;;;28.10;99.90;;;;;;4965202;28;20522;-74
2021/12/18 10:00:24;;;;;;;24.80;6.78;;;28.10;99.90;;;;;;4966352;28;20101;-75
2021/12/18 10:02:52;;;;;;;19.58;8.02;;;28.10;99.90;;;;;;4965490;28;20043;-73
2021/12/18 10:05:21;;;;;;;25.30;8.02;;;28.10;99.90;;;;;;4965768;28;20031;-73
2021/12/18 10:08:16;;;;;;;20.75;7.13;;;28.10;99.90;;;;;;4964481;28;20042;-74
2021/12/18 10:11:03;;;;;;;26.08;8.02;;;28.00;99.90;;;;;;4965583;28;20023;-74
2021/12/18 10:13:49;;;;;;;27.85;7.53;;;28.00;99.90;;;;;;4966801;28;20062;-74
2021/12/18 10:16:17;;;;;;;26.60;7.50;;;28.00;99.90;;;;;;4965973;28;20507;-75
2021/12/18 10:18:44;;;;;;;21.65;7.32;;;27.90;99.90;;;;;;4964765;28;20118;-74
2021/12/18 10:21:14;;;;;;;30.27;6.90;;;27.90;99.90;;;;;;4964255;28;20504;-72
2021/12/18 10:23:44;;;;;;;26.08;7.22;;;27.90;99.90;;;;;;4961822;28;20051;-72
2021/12/18 10:26:35;;;;;;;22.92;7.65;;;27.90;99.90;;;;;;4964468;28;20033;-74
2021/12/18 10:29:03;;;;;;;27.42;7.15;;;27.80;99.90;;;;;;4965295;28;20454;-75
2021/12/18 10:31:42;;;;;;;23.33;8.07;;;27.80;99.90;;;;;;4964726;28;20026;-75
2021/12/18 10:34:24;;;;;;;26.67;7.82;;;27.80;99.90;;;;;;4964168;28;20133;-73
2021/12/18 10:37:14;;;;;;;21.85;6.57;;;27.80;99.90;;;;;;4964573;28;20121;-75
2021/12/18 10:39:53;;;;;;;28.85;7.70;;;27.70;99.90;;;;;;4965262;28;20042;-74
2021/12/18 10:42:40;;;;;;;21.95;6.50;;;27.70;99.90;;;;;;4964309;28;20030;-74
2021/12/18 10:45:25;;;;;;;23.58;6.85;;;27.70;99.90;;;;;;4963888;28;20088;-74
2021/12/18 10:48:03;;;;;;;29.85;7.72;;;27.80;99.90;;;;;;4963857;28;20434;-73
2021/12/18 10:50:49;;;;;;;25.92;6.55;;;27.70;99.90;;;;;;4963891;28;20895;-72
2021/12/18 10:53:20;;;;;;;21.40;7.38;;;27.70;99.90;;;;;;4963366;28;20179;-73
2021/12/18 10:55:54;;;;;;;26.30;6.53;;;27.80;99.90;;;;;;4963575;28;20499;-74
2021/12/18 10:58:36;;;;;;;25.10;7.32;;;27.80;99.90;;;;;;4963882;28;20046;-73
2021/12/18 11:01:08;;;;;;;23.52;7.75;;;27.80;99.90;;;;;;4964167;28;20031;-73
2021/12/18 11:03:39;;;;;;;23.10;7.47;;;27.80;99.90;;;;;;4963326;28;20037;-73
2021/12/18 11:06:14;;;;;;;23.98;7.07;;;27.70;99.90;;;;;;4963836;28;20027;-73
2021/12/18 11:08:58;;;;;;;23.10;7.15;;;27.80;99.90;;;;;;4963802;28;20033;-73
2021/12/18 11:14:15;;;;;;;22.17;6.93;;;27.70;99.90;;;;;;4967839;28;20575;-72
2021/12/18 11:16:49;;;;;;;30.30;6.57;;;27.70;99.90;;;;;;4972988;28;20031;-72
2021/12/18 11:19:21;;;;;;;29.27;6.70;;;27.70;99.90;;;;;;4973282;28;20086;-74
2021/12/18 11:22:09;;;;;;;22.23;6.70;;;27.70;99.90;;;;;;4973553;28;20102;-74
2021/12/18 11:24:55;;;;;;;22.85;5.63;;;27.70;99.90;;;;;;4972730;28;20542;-75
2021/12/18 11:27:22;;;;;;;22.95;7.13;;;27.70;99.90;;;;;;4973433;28;20027;-75
2021/12/18 11:30:02;;;;;;;21.42;6.63;;;27.70;99.90;;;;;;4973375;28;20027;-75
2021/12/18 11:32:34;;;;;;;20.90;6.45;;;27.70;99.90;;;;;;4973803;28;20019;-75
2021/12/18 11:35:05;;;;;;;17.75;7.82;;;27.70;99.90;;;;;;4973415;28;20102;-74
2021/12/18 11:37:49;;;;;;;19.83;5.90;;;27.70;99.90;;;;;;4973221;28;20073;-75
2021/12/18 11:40:19;;;;;;;20.17;6.70;;;27.70;99.90;;;;;;4973488;28;20499;-73
2021/12/18 11:42:47;;;;;;;20.75;5.43;;;27.80;99.90;;;;;;4973394;28;20034;-75
2021/12/18 11:45:14;;;;;;;19.50;5.43;;;27.80;99.90;;;;;;4973197;28;20027;-73
2021/12/18 11:47:56;;;;;;;26.35;7.85;;;27.80;99.90;;;;;;4972942;28;20501;-75
2021/12/18 11:50:26;;;;;;;21.63;6.78;;;27.80;99.90;;;;;;4973084;28;20026;-72
2021/12/18 11:53:07;;;;;;;21.52;6.97;;;27.90;99.90;;;;;;4972892;28;20368;-73
2021/12/18 11:55:49;;;;;;;18.33;7.40;;;27.80;99.90;;;;;;4972796;28;20034;-74
2021/12/18 11:58:25;;;;;;;18.23;6.47;;;27.90;99.90;;;;;;4973282;28;20034;-75
2021/12/18 12:01:04;;;;;;;19.83;6.68;;;27.90;99.90;;;;;;4973181;28;20086;-75
2021/12/18 12:03:37;;;;;;;18.45;6.85;;;27.90;99.90;;;;;;4973153;28;20030;-74
2021/12/18 12:06:20;;;;;;;22.27;9.73;;;27.90;99.90;;;;;;4972690;28;20038;-76
2021/12/18 12:08:51;;;;;;;19.33;4.65;;;28.00;99.90;;;;;;4973410;28;20035;-75
2021/12/18 12:11:26;;;;;;;11.60;1.67;;;28.00;99.90;;;;;;4973168;28;20023;-74
2021/12/18 12:13:56;;;;;;;5.80;0.68;;;27.90;94.50;;;;;;4971942;28;20391;-73
2021/12/18 12:17:01;;;;;;;3.28;0.52;;;28.00;90.90;;;;;;4972583;28;20030;-74
2021/12/18 12:19:34;;;;;;;3.40;0.75;;;28.00;89.60;;;;;;4972779;28;20542;-74
2021/12/18 12:22:06;;;;;;;2.08;0.32;;;27.90;89.20;;;;;;4972917;28;20035;-74
2021/12/18 12:24:54;;;;;;;;;;;27.80;89.60;;;;;;4972693;28;20039;-75
2021/12/18 12:27:28;;;;;;;1.38;0.30;;;27.60;90.10;;;;;;4971124;28;20358;-75
2021/12/18 12:29:56;;;;;;;3.03;0.65;;;27.50;90.50;;;;;;4972673;28;20023;-74
2021/12/18 12:32:24;;;;;;;3.35;0.32;;;27.40;91.10;;;;;;4972649;28;20102;-75
2021/12/18 12:35:05;;;;;;;10.13;1.08;;;27.10;91.70;;;;;;4972976;28;20019;-81
2021/12/18 12:37:36;;;;;;;7.97;1.00;;;26.90;95.80;;;;;;4972854;28;20130;-82
2021/12/18 12:40:10;;;;;;;7.18;1.52;;;26.30;98.10;;;;;;4973229;28;20023;-74
2021/12/18 12:42:39;;;;;;;6.10;0.90;;;25.60;99.80;;;;;;4972560;28;20121;-82
2021/12/18 12:45:13;;;;;;;5.03;0.82;;;24.90;99.90;;;;;;4972860;28;20027;-78
2021/12/18 12:47:52;;;;;;;2.55;0.50;;;24.50;99.90;;;;;;4972494;28;20035;-82
2021/12/18 12:50:19;;;;;;;3.20;0.80;;;24.10;99.90;;;;;;4974520;28;20023;-77
2021/12/18 12:53:01;;;;;;;5.13;0.60;;;23.90;99.90;;;;;;4978810;28;20047;-82
2021/12/18 12:55:39;;;;;;;1.50;0.40;;;23.70;99.90;;;;;;4981469;28;20030;-84
2021/12/18 12:58:19;;;;;;;2.33;0.50;;;23.60;99.90;;;;;;4971422;28;20459;-85
2021/12/18 13:00:50;;;;;;;2.40;0.60;;;23.50;99.90;;;;;;4972679;28;20110;-84
2021/12/18 13:03:20;;;;;;;2.83;0.88;;;23.50;99.90;;;;;;4972396;28;20030;-83
2021/12/18 13:06:09;;;;;;;3.75;0.90;;;23.50;99.90;;;;;;4973346;28;20062;-73
2021/12/18 13:08:40;;;;;;;2.92;0.93;;;23.50;99.90;;;;;;4973024;28;21129;-73
2021/12/18 13:11:12;;;;;;;6.55;1.00;;;23.40;99.90;;;;;;4972669;28;20030;-82
2021/12/18 13:13:39;;;;;;;;;;;23.30;99.90;;;;;;4973521;28;20031;-79
2021/12/18 13:16:13;;;;;;;5.03;0.85;;;23.20;99.90;;;;;;4973003;28;20367;-77
2021/12/18 13:18:58;;;;;;;4.90;1.08;;;23.00;99.90;;;;;;4972196;28;20038;-81
2021/12/18 13:21:32;;;;;;;4.70;1.50;;;22.80;99.90;;;;;;4971854;28;20028;-81
2021/12/18 13:24:00;;;;;;;3.55;1.00;;;22.60;99.90;;;;;;4972274;28;20539;-81
2021/12/18 13:26:41;;;;;;;4.75;1.02;;;22.50;99.90;;;;;;4974806;28;20038;-82
2021/12/18 13:29:27;;;;;;;4.90;0.77;;;22.40;99.90;;;;;;4975693;28;20435;-85
2021/12/18 13:31:58;;;;;;;4.60;1.00;;;22.40;99.90;;;;;;4975238;28;20058;-85
2021/12/18 13:34:37;;;;;;;5.07;1.27;;;22.40;99.90;;;;;;4975355;28;20124;-78
2021/12/18 13:37:07;;;;;;;8.50;1.85;;;22.40;99.90;;;;;;4975771;28;20022;-81
2021/12/18 13:39:53;;;;;;;4.90;1.75;;;22.40;99.90;;;;;;4975764;28;20503;-81
2021/12/18 13:42:23;;;;;;;6.72;1.83;;;22.40;99.90;;;;;;4975663;28;20109;-80
2021/12/18 13:45:01;;;;;;;3.75;1.50;;;22.30;99.90;;;;;;4974859;28;20030;-76
2021/12/18 13:47:33;;;;;;;3.95;1.10;;;22.30;99.90;;;;;;4973558;28;20101;-77
2021/12/18 13:50:01;;;;;;;;;;;22.20;99.90;;;;;;4975317;28;20029;-76